メインページ
METAR-TAF:

METAR-TAF

空港 :

ベルリン・テーゲル空港

ベルリン, ドイツ

緯度: 52-34N, 経度: 013-19E, 海抜: 37m

現時点の気象観測

当レポートは27分前の20:20(UTC)に作成
北/北西の風 5kt、西/北西から北/北東の間で変化する
気温 3°C
湿度 87%
気圧 1018 hPa
視程10km以上
高度2300ftの雲はほとんどない

METAR: EDDT 112020Z 33005KT 300V020 9999 FEW023 03/01 Q1018 TEMPO BKN012

時間: 21:47 (20:47 UTC)

予報

当レポートは3時間47分前の17:00(UTC)に作成
予報は11日の 18時(UTC)から 12日の 18時(UTC)まで有効
北西の風 7kt
視程10km以上
高度1500ftの千切れ雲あり
11日の 18時(UTC)から 12日の 10時(UTC)まで一時的に
高度800ftの千切れ雲あり
確率 30% :
12日の 00時(UTC)から 12日の 09時(UTC)まで一時的に
視程: 3500m
高度400ftの千切れ雲あり
小雨, 雪
12日の 04時(UTC)から 12日の 07時(UTC)まで徐々に
の風 6kt

TAF: EDDT 111700Z 1118/1218 31007KT 9999 BKN015 TEMPO 1118/1210 BKN008 PROB30 TEMPO 1200/1209 3500 -RASN BKN004 BECMG 1204/1207 01006KT

4,000以上の空港の気象観測と天気予報(METAR報とTAF報)

利用可能な観測所は地図上に黄色い丸と赤い丸で示す。

丸の上にカーソルを重ねると観測所名を参照できる。

次にクリックすると気象観測と天気予報を参照できる。

マップの切り替え:黒色「×」印の緑ボタンをクリックして拡大、「-」印の緑ボタンをクリックして縮小、緑色の三角印をクリックして隣りの地図に切り替え


METAR-TAF: